createdAt,value
2023-03-03T00:00:47.418Z,4.04
2023-03-03T00:03:19.100Z,4.00
2023-03-03T00:05:47.691Z,3.94
2023-03-03T00:08:16.065Z,3.99
2023-03-03T00:10:45.278Z,4.03
2023-03-03T00:13:19.036Z,4.03
2023-03-03T00:15:49.531Z,4.01
2023-03-03T00:18:26.919Z,4.01
2023-03-03T00:20:57.345Z,4.01
2023-03-03T00:23:32.787Z,4.06
2023-03-03T00:26:01.199Z,4.04
2023-03-03T00:28:31.911Z,3.84
2023-03-03T00:31:03.543Z,3.99
2023-03-03T00:33:34.759Z,3.81
2023-03-03T00:36:23.834Z,4.04
2023-03-03T00:38:52.378Z,3.98
2023-03-03T00:41:25.217Z,3.97
2023-03-03T00:43:54.872Z,3.97
2023-03-03T00:46:25.388Z,3.98
2023-03-03T00:48:53.924Z,3.94
2023-03-03T00:51:33.344Z,3.90
2023-03-03T00:54:01.906Z,3.90
2023-03-03T00:56:30.282Z,3.90
2023-03-03T00:58:58.740Z,3.93
2023-03-03T01:01:31.030Z,3.95
2023-03-03T01:03:59.472Z,3.94
2023-03-03T01:06:28.341Z,3.95
2023-03-03T01:08:57.572Z,3.95
2023-03-03T01:11:28.818Z,3.24
2023-03-03T01:13:58.181Z,3.92
2023-03-03T01:16:28.585Z,3.89
2023-03-03T01:18:58.455Z,3.73
2023-03-03T01:21:26.817Z,3.80
2023-03-03T01:23:55.370Z,3.68
2023-03-03T01:26:23.742Z,3.72
2023-03-03T01:28:52.275Z,3.64
2023-03-03T01:31:20.766Z,3.63
2023-03-03T01:33:49.234Z,3.47
2023-03-03T01:36:24.800Z,1.90
2023-03-03T01:38:53.536Z,3.46
2023-03-03T01:41:22.431Z,3.41
2023-03-03T01:43:51.813Z,3.35
2023-03-03T01:46:38.337Z,3.30
2023-03-03T01:49:12.521Z,3.01
2023-03-03T01:51:48.860Z,3.09
2023-03-03T01:54:23.202Z,2.90
2023-03-03T01:56:53.364Z,2.93
2023-03-03T01:59:24.691Z,2.87
2023-03-03T02:01:53.843Z,2.82
2023-03-03T02:04:22.743Z,3.02
2023-03-03T02:06:58.314Z,3.08
2023-03-03T02:09:35.466Z,3.18
2023-03-03T02:12:08.423Z,2.99
2023-03-03T02:14:36.919Z,3.28
2023-03-03T02:17:05.364Z,3.23
2023-03-03T02:19:44.051Z,3.16
2023-03-03T02:22:18.548Z,3.12
2023-03-03T02:24:51.308Z,3.12
2023-03-03T02:27:22.571Z,3.13
2023-03-03T02:29:52.445Z,3.14
2023-03-03T02:32:20.957Z,3.11
2023-03-03T02:34:50.911Z,3.07
2023-03-03T02:37:20.627Z,2.76
2023-03-03T02:39:49.165Z,2.89
2023-03-03T02:42:21.868Z,2.70
2023-03-03T02:44:56.087Z,2.64
2023-03-03T02:47:25.141Z,2.59
2023-03-03T02:49:53.679Z,2.49
2023-03-03T02:52:22.102Z,2.44
2023-03-03T02:54:51.217Z,2.36
2023-03-03T02:57:19.583Z,2.32
2023-03-03T02:59:49.821Z,2.31
2023-03-03T03:02:20.776Z,2.20
2023-03-03T03:04:49.217Z,2.09
2023-03-03T03:07:22.477Z,2.06
2023-03-03T03:09:51.085Z,2.02
2023-03-03T03:12:21.009Z,2.00
2023-03-03T03:14:52.412Z,2.03
2023-03-03T03:17:22.757Z,2.03
2023-03-03T03:19:52.884Z,1.96
2023-03-03T03:22:21.833Z,1.76
2023-03-03T03:24:50.784Z,1.76
2023-03-03T03:27:19.431Z,1.69
2023-03-03T03:29:49.696Z,1.60
2023-03-03T03:32:19.410Z,1.46
2023-03-03T03:34:49.691Z,1.29
2023-03-03T03:37:18.137Z,1.27
2023-03-03T03:39:47.900Z,1.20
2023-03-03T03:42:16.435Z,1.13
2023-03-03T03:44:45.350Z,1.11
2023-03-03T03:47:13.741Z,1.14
2023-03-03T03:49:42.384Z,1.14
2023-03-03T03:52:12.263Z,1.07
2023-03-03T03:54:41.007Z,1.08
2023-03-03T03:57:09.468Z,1.09
2023-03-03T03:59:37.980Z,1.08
2023-03-03T04:02:06.812Z,1.06
2023-03-03T04:04:35.602Z,1.01
2023-03-03T04:07:04.113Z,0.95
2023-03-03T04:09:33.985Z,0.87
2023-03-03T04:12:03.198Z,0.76
2023-03-03T04:14:32.549Z,0.66
2023-03-03T04:17:01.663Z,0.64
2023-03-03T04:19:30.070Z,0.59
2023-03-03T04:21:58.720Z,0.57
2023-03-03T04:24:27.659Z,0.54
2023-03-03T04:26:58.560Z,0.55
2023-03-03T04:29:27.100Z,0.49
2023-03-03T04:31:55.705Z,0.52
2023-03-03T04:34:24.952Z,0.48
2023-03-03T04:36:53.362Z,0.47
2023-03-03T04:39:21.846Z,0.49
2023-03-03T04:41:50.371Z,0.55
2023-03-03T04:44:21.042Z,0.60
2023-03-03T04:46:50.193Z,0.61
2023-03-03T04:49:19.852Z,0.63
2023-03-03T04:51:48.690Z,0.58
2023-03-03T04:54:17.139Z,0.47
2023-03-03T04:56:46.935Z,0.47
2023-03-03T04:59:15.745Z,0.43
2023-03-03T05:01:52.085Z,0.50
2023-03-03T05:04:24.654Z,0.44
2023-03-03T05:06:53.127Z,0.41
2023-03-03T05:09:21.560Z,0.33
2023-03-03T05:11:49.923Z,0.28
2023-03-03T05:14:18.381Z,0.21
2023-03-03T05:16:48.188Z,0.10
2023-03-03T05:19:16.663Z,0.07
2023-03-03T05:21:45.123Z,0.10
2023-03-03T05:24:15.125Z,0.12
2023-03-03T05:26:43.914Z,0.12
2023-03-03T05:29:12.383Z,0.16
2023-03-03T05:31:40.857Z,0.17
2023-03-03T05:34:10.848Z,0.18
2023-03-03T05:36:40.268Z,0.18
2023-03-03T05:39:08.953Z,0.16
2023-03-03T05:41:37.336Z,0.20
2023-03-03T05:44:05.978Z,0.25
2023-03-03T05:46:34.424Z,0.26
2023-03-03T05:49:03.153Z,0.24
2023-03-03T05:51:32.964Z,0.27
2023-03-03T05:54:01.655Z,0.34
2023-03-03T05:56:30.077Z,0.39
2023-03-03T05:58:58.425Z,0.41
2023-03-03T06:01:27.161Z,0.40
2023-03-03T06:03:55.596Z,0.31
2023-03-03T06:06:26.154Z,0.19
2023-03-03T06:08:57.362Z,0.05
2023-03-03T06:11:26.423Z,-0.01
2023-03-03T06:13:56.476Z,0.03
2023-03-03T06:16:25.719Z,0.04
2023-03-03T06:18:55.033Z,0.07
2023-03-03T06:21:23.519Z,0.12
2023-03-03T06:23:51.978Z,0.12
2023-03-03T06:26:21.766Z,0.12
2023-03-03T06:28:50.379Z,0.16
2023-03-03T06:31:18.772Z,0.19
2023-03-03T06:33:47.392Z,0.15
2023-03-03T06:36:15.880Z,0.10
2023-03-03T06:38:44.263Z,0.11
2023-03-03T06:41:13.101Z,0.07
2023-03-03T06:43:42.959Z,0.08
2023-03-03T06:46:11.491Z,0.08
2023-03-03T06:48:40.895Z,0.12
2023-03-03T06:51:21.585Z,0.24
2023-03-03T06:53:50.439Z,0.24
2023-03-03T06:56:19.844Z,0.28
2023-03-03T06:58:50.564Z,0.38
2023-03-03T07:01:20.160Z,0.40
2023-03-03T07:03:48.601Z,0.47
2023-03-03T07:06:23.680Z,0.58
2023-03-03T07:08:53.035Z,0.67
2023-03-03T07:11:23.270Z,0.73
2023-03-03T07:13:55.530Z,0.79
2023-03-03T07:16:28.343Z,0.85
2023-03-03T07:19:01.659Z,0.93
2023-03-03T07:21:34.786Z,1.03
2023-03-03T07:24:19.182Z,1.16
2023-03-03T07:26:47.595Z,1.29
2023-03-03T07:29:25.578Z,1.43
2023-03-03T07:31:56.105Z,1.58
2023-03-03T07:34:25.850Z,1.77
2023-03-03T07:36:57.473Z,1.64
2023-03-03T07:39:40.053Z,2.08
2023-03-03T07:42:22.153Z,2.32
2023-03-03T07:45:00.191Z,2.05
2023-03-03T07:47:31.180Z,2.89
2023-03-03T07:50:02.826Z,3.42
2023-03-03T07:52:40.934Z,3.61
2023-03-03T07:55:27.369Z,4.55
2023-03-03T07:57:59.160Z,5.10
2023-03-03T08:01:12.337Z,5.59
2023-03-03T08:03:45.000Z,5.96
2023-03-03T08:06:32.894Z,6.41
2023-03-03T08:09:14.347Z,6.80
2023-03-03T08:11:52.985Z,7.29
2023-03-03T08:14:28.740Z,7.61
2023-03-03T08:16:59.849Z,7.88
2023-03-03T08:19:32.556Z,8.12
2023-03-03T08:22:04.531Z,8.33
2023-03-03T08:24:33.014Z,8.46
2023-03-03T08:27:01.813Z,8.52
2023-03-03T08:29:30.343Z,8.58
2023-03-03T08:31:58.836Z,8.61
2023-03-03T08:34:27.436Z,8.67
2023-03-03T08:36:58.690Z,8.71
2023-03-03T08:39:27.070Z,8.78
2023-03-03T08:41:55.607Z,8.90
2023-03-03T08:44:24.086Z,8.93
2023-03-03T08:46:52.511Z,8.95
2023-03-03T08:49:27.024Z,8.99
2023-03-03T08:51:57.169Z,8.99
2023-03-03T08:54:25.528Z,8.99
2023-03-03T08:56:53.939Z,9.05
2023-03-03T08:59:22.495Z,9.10
2023-03-03T09:01:51.035Z,9.14
2023-03-03T09:04:19.524Z,9.15
2023-03-03T09:06:48.481Z,9.18
2023-03-03T09:09:18.364Z,9.23
2023-03-03T09:11:47.359Z,9.25
2023-03-03T09:14:18.054Z,9.30
2023-03-03T09:16:51.342Z,9.27
2023-03-03T09:19:24.788Z,9.37
2023-03-03T09:21:55.038Z,9.32
2023-03-03T09:24:30.844Z,9.33
2023-03-03T09:27:00.883Z,9.34
2023-03-03T09:29:31.177Z,9.37
2023-03-03T09:32:02.400Z,9.40
2023-03-03T09:34:40.426Z,9.47
2023-03-03T09:37:23.983Z,9.51
2023-03-03T09:39:55.723Z,9.52
2023-03-03T09:42:43.716Z,9.54
2023-03-03T09:45:34.637Z,9.48
2023-03-03T09:48:34.163Z,9.62
2023-03-03T09:51:14.237Z,9.62
2023-03-03T09:54:15.354Z,9.71
2023-03-03T09:56:50.639Z,9.79
2023-03-03T09:59:43.843Z,9.57
2023-03-03T10:02:32.258Z,9.84
2023-03-03T10:05:15.901Z,9.95
2023-03-03T10:07:56.034Z,10.05
2023-03-03T10:10:55.635Z,10.13
2023-03-03T10:13:40.120Z,10.22
2023-03-03T10:16:23.873Z,10.25
2023-03-03T10:19:00.081Z,10.06
2023-03-03T10:21:35.974Z,10.30
2023-03-03T10:24:15.617Z,10.24
2023-03-03T10:27:13.467Z,10.40
2023-03-03T10:29:56.697Z,9.72
2023-03-03T10:32:48.868Z,10.42
2023-03-03T10:35:32.439Z,10.43
2023-03-03T10:38:27.573Z,10.48
2023-03-03T10:41:05.538Z,10.57
2023-03-03T10:43:51.811Z,10.63
2023-03-03T10:46:37.324Z,10.71
2023-03-03T10:49:28.284Z,10.92
2023-03-03T10:52:21.345Z,11.09
2023-03-03T10:55:05.693Z,11.32
2023-03-03T10:57:40.106Z,11.52
2023-03-03T11:00:25.584Z,11.58
2023-03-03T11:03:32.887Z,11.64
2023-03-03T11:06:06.611Z,11.72
2023-03-03T11:08:42.541Z,11.83
2023-03-03T11:11:19.182Z,11.94
2023-03-03T11:13:53.002Z,12.06
2023-03-03T11:16:43.551Z,12.38
2023-03-03T11:19:27.309Z,12.49
2023-03-03T11:22:08.690Z,12.56
2023-03-03T11:24:51.307Z,12.70
2023-03-03T11:27:32.285Z,12.94
2023-03-03T11:30:35.669Z,13.10
2023-03-03T11:33:08.028Z,13.18
2023-03-03T11:35:44.517Z,13.03
2023-03-03T11:38:45.456Z,13.23
2023-03-03T11:41:24.937Z,13.26
2023-03-03T11:43:55.914Z,13.04
2023-03-03T11:46:30.934Z,13.12
2023-03-03T11:49:04.517Z,13.28
2023-03-03T11:51:45.478Z,13.28
2023-03-03T11:54:22.307Z,13.31
2023-03-03T11:56:56.564Z,13.43
2023-03-03T11:59:46.165Z,13.57
2023-03-03T12:02:38.800Z,13.61
2023-03-03T12:05:13.030Z,13.72
2023-03-03T12:07:51.240Z,13.72
2023-03-03T12:10:25.443Z,13.71
2023-03-03T12:13:04.107Z,13.73
2023-03-03T12:15:39.806Z,13.75
2023-03-03T12:18:23.181Z,13.79
2023-03-03T12:21:04.072Z,13.82
2023-03-03T12:23:49.909Z,13.97
2023-03-03T12:26:26.735Z,14.00
2023-03-03T12:29:04.739Z,13.23
2023-03-03T12:31:45.773Z,14.05
2023-03-03T12:34:20.636Z,14.05
2023-03-03T12:37:00.654Z,14.06
2023-03-03T12:39:49.485Z,14.09
2023-03-03T12:42:26.735Z,14.08
2023-03-03T12:45:06.561Z,14.17
2023-03-03T12:47:40.390Z,14.26
2023-03-03T12:50:28.246Z,14.31
2023-03-03T12:53:09.978Z,14.37
2023-03-03T12:55:49.650Z,14.39
2023-03-03T12:58:29.814Z,14.39
2023-03-03T13:01:08.877Z,14.36
2023-03-03T13:03:55.288Z,14.38
2023-03-03T13:06:31.127Z,14.36
2023-03-03T13:09:20.980Z,14.42
2023-03-03T13:12:13.802Z,14.53
2023-03-03T13:14:50.680Z,14.66
2023-03-03T13:17:29.043Z,14.77
2023-03-03T13:20:01.167Z,14.80
2023-03-03T13:22:38.081Z,14.66
2023-03-03T13:25:18.648Z,14.57
2023-03-03T13:27:52.273Z,14.54
2023-03-03T13:30:25.232Z,14.54
2023-03-03T13:33:01.063Z,14.51
2023-03-03T13:35:40.263Z,14.54
2023-03-03T13:38:13.246Z,14.48
2023-03-03T13:40:46.429Z,14.49
2023-03-03T13:43:20.547Z,14.49
2023-03-03T13:45:57.873Z,14.42
2023-03-03T13:48:46.582Z,14.52
2023-03-03T13:51:25.255Z,14.46
2023-03-03T13:54:03.396Z,14.47
2023-03-03T13:56:50.969Z,14.50
2023-03-03T13:59:30.930Z,14.54
2023-03-03T14:02:08.502Z,14.59
2023-03-03T14:04:50.914Z,14.51
2023-03-03T14:07:24.562Z,14.62
2023-03-03T14:10:03.585Z,14.67
2023-03-03T14:12:43.442Z,14.71
2023-03-03T14:15:22.170Z,14.62
2023-03-03T14:18:20.104Z,14.83
2023-03-03T14:20:52.972Z,14.77
2023-03-03T14:23:26.857Z,14.77
2023-03-03T14:25:59.892Z,14.74
2023-03-03T14:28:30.747Z,14.71
2023-03-03T14:31:02.302Z,14.77
2023-03-03T14:33:32.497Z,14.87
2023-03-03T14:36:07.199Z,14.87
2023-03-03T14:38:42.795Z,14.88
2023-03-03T14:41:23.381Z,14.39
2023-03-03T14:43:59.890Z,14.60
2023-03-03T14:46:38.246Z,14.67
2023-03-03T14:49:08.763Z,14.67
2023-03-03T14:51:46.934Z,14.72
2023-03-03T14:54:22.414Z,14.72
2023-03-03T14:57:12.239Z,14.69
2023-03-03T14:59:41.008Z,14.60
2023-03-03T15:02:30.226Z,14.56
2023-03-03T15:05:18.844Z,14.51
2023-03-03T15:07:51.991Z,14.45
2023-03-03T15:10:36.052Z,14.47
2023-03-03T15:13:39.836Z,14.51
2023-03-03T15:16:18.018Z,14.27
2023-03-03T15:19:10.281Z,14.47
2023-03-03T15:21:45.964Z,14.45
2023-03-03T15:24:22.793Z,14.51
2023-03-03T15:26:57.980Z,14.50
2023-03-03T15:29:31.857Z,14.23
2023-03-03T15:32:06.505Z,14.44
2023-03-03T15:34:41.653Z,14.40
2023-03-03T15:37:28.119Z,14.34
2023-03-03T15:40:04.425Z,14.30
2023-03-03T15:42:39.484Z,14.24
2023-03-03T15:45:17.256Z,13.36
2023-03-03T15:48:01.716Z,14.21
2023-03-03T15:50:41.662Z,14.19
2023-03-03T15:53:27.222Z,14.17
2023-03-03T15:56:07.397Z,14.12
2023-03-03T15:59:06.304Z,14.06
2023-03-03T16:01:36.251Z,13.98
2023-03-03T16:04:10.960Z,13.57
2023-03-03T16:06:48.553Z,13.74
2023-03-03T16:09:33.388Z,13.70
2023-03-03T16:12:13.133Z,13.61
2023-03-03T16:15:06.526Z,13.55
2023-03-03T16:17:44.544Z,13.51
2023-03-03T16:20:22.360Z,13.52
2023-03-03T16:23:28.754Z,13.47
2023-03-03T16:26:06.219Z,13.37
2023-03-03T16:28:49.808Z,13.32
2023-03-03T16:31:23.055Z,13.23
2023-03-03T16:34:02.265Z,13.16
2023-03-03T16:36:38.482Z,13.10
2023-03-03T16:39:14.508Z,13.03
2023-03-03T16:41:52.619Z,12.98
2023-03-03T16:44:48.804Z,12.87
2023-03-03T16:47:30.965Z,12.78
2023-03-03T16:50:13.224Z,12.74
2023-03-03T16:52:48.985Z,12.67
2023-03-03T16:55:21.923Z,12.64
2023-03-03T16:58:00.788Z,12.64
2023-03-03T17:00:36.288Z,12.59
2023-03-03T17:03:32.859Z,12.54
2023-03-03T17:06:07.548Z,12.46
2023-03-03T17:08:56.492Z,12.37
2023-03-03T17:11:33.193Z,12.31
2023-03-03T17:14:37.556Z,12.24
2023-03-03T17:17:15.409Z,12.20
2023-03-03T17:19:57.505Z,12.15
2023-03-03T17:22:41.573Z,12.08
2023-03-03T17:25:18.700Z,11.98
2023-03-03T17:28:25.092Z,11.89
2023-03-03T17:31:03.677Z,11.66
2023-03-03T17:34:00.479Z,11.45
2023-03-03T17:36:45.561Z,11.26
2023-03-03T17:39:46.130Z,11.14
2023-03-03T17:42:22.993Z,11.04
2023-03-03T17:45:03.348Z,11.03
2023-03-03T17:47:47.463Z,10.89
2023-03-03T17:50:58.697Z,10.69
2023-03-03T17:53:45.645Z,10.42
2023-03-03T17:56:22.105Z,10.16
2023-03-03T17:59:18.929Z,9.99
2023-03-03T18:02:02.644Z,9.81
2023-03-03T18:04:46.338Z,9.63
2023-03-03T18:07:29.691Z,9.48
2023-03-03T18:10:43.121Z,9.45
2023-03-03T18:13:31.109Z,9.03
2023-03-03T18:16:14.311Z,9.15
2023-03-03T18:19:01.239Z,9.14
2023-03-03T18:21:35.226Z,9.01
2023-03-03T18:24:30.054Z,8.65
2023-03-03T18:27:15.612Z,8.62
2023-03-03T18:30:25.084Z,8.45
2023-03-03T18:33:14.881Z,8.31
2023-03-03T18:35:45.035Z,8.24
2023-03-03T18:38:35.072Z,8.29
2023-03-03T18:41:04.470Z,8.18
2023-03-03T18:44:25.072Z,7.99
2023-03-03T18:46:55.371Z,7.79
2023-03-03T18:49:57.788Z,7.62
2023-03-03T18:52:29.380Z,7.48
2023-03-03T18:55:26.166Z,7.37
2023-03-03T18:58:29.946Z,7.12
2023-03-03T19:01:09.370Z,7.03
2023-03-03T19:03:58.369Z,6.84
2023-03-03T19:06:53.981Z,6.97
2023-03-03T19:09:52.583Z,6.80
2023-03-03T19:12:52.267Z,6.72
2023-03-03T19:15:44.466Z,6.64
2023-03-03T19:18:21.226Z,6.58
2023-03-03T19:20:55.744Z,6.54
2023-03-03T19:23:35.545Z,6.47
2023-03-03T19:26:35.716Z,6.37
2023-03-03T19:29:16.516Z,6.23
2023-03-03T19:31:54.594Z,6.12
2023-03-03T19:34:30.973Z,6.02
2023-03-03T19:37:08.623Z,5.91
2023-03-03T19:39:52.724Z,5.81
2023-03-03T19:42:35.983Z,5.28
2023-03-03T19:45:14.685Z,5.55
2023-03-03T19:47:49.477Z,5.55
2023-03-03T19:50:31.871Z,5.54
2023-03-03T19:53:09.032Z,5.59
2023-03-03T19:55:50.421Z,5.44
2023-03-03T19:58:30.423Z,5.31
2023-03-03T20:01:08.596Z,5.30
2023-03-03T20:04:00.605Z,5.25
2023-03-03T20:06:52.228Z,4.97
2023-03-03T20:09:31.294Z,5.11
2023-03-03T20:12:27.523Z,5.05
2023-03-03T20:15:09.801Z,4.73
2023-03-03T20:17:58.736Z,4.86
2023-03-03T20:20:58.272Z,4.76
2023-03-03T20:23:36.897Z,4.81
2023-03-03T20:26:15.406Z,4.76
2023-03-03T20:29:07.987Z,4.76
2023-03-03T20:31:42.820Z,4.69
2023-03-03T20:34:18.936Z,4.84
2023-03-03T20:36:57.889Z,4.96
2023-03-03T20:39:45.133Z,5.02
2023-03-03T20:42:23.039Z,5.14
2023-03-03T20:45:04.699Z,5.25
2023-03-03T20:47:43.701Z,5.39
2023-03-03T20:50:22.697Z,5.53
2023-03-03T20:53:03.027Z,5.63
2023-03-03T20:55:43.459Z,5.62
2023-03-03T20:58:22.968Z,5.76
2023-03-03T21:00:59.435Z,5.82
2023-03-03T21:03:34.394Z,5.86
2023-03-03T21:06:05.167Z,5.93
2023-03-03T21:08:49.889Z,5.98
2023-03-03T21:11:23.249Z,6.01
2023-03-03T21:13:54.476Z,5.62
2023-03-03T21:16:35.916Z,6.08
2023-03-03T21:19:07.234Z,6.10
2023-03-03T21:21:37.498Z,5.39
2023-03-03T21:24:09.037Z,6.15
2023-03-03T21:26:51.439Z,6.09
2023-03-03T21:29:22.342Z,6.04
2023-03-03T21:31:52.321Z,5.27
2023-03-03T21:34:24.668Z,5.85
2023-03-03T21:36:54.532Z,5.92
2023-03-03T21:39:29.190Z,5.96
2023-03-03T21:42:02.205Z,5.89
2023-03-03T21:44:34.552Z,5.79
2023-03-03T21:47:04.476Z,5.66
2023-03-03T21:49:33.030Z,6.75
2023-03-03T21:52:04.448Z,6.17
2023-03-03T21:54:33.642Z,5.86
2023-03-03T21:57:04.893Z,5.83
2023-03-03T21:59:33.379Z,5.75
2023-03-03T22:02:01.913Z,5.65
2023-03-03T22:04:31.436Z,5.57
2023-03-03T22:07:00.124Z,5.49
2023-03-03T22:09:29.210Z,5.50
2023-03-03T22:11:57.716Z,5.52
2023-03-03T22:14:27.979Z,5.53
2023-03-03T22:16:57.535Z,5.64
2023-03-03T22:19:26.358Z,5.66
2023-03-03T22:21:54.776Z,5.73
2023-03-03T22:24:23.214Z,5.78
2023-03-03T22:26:51.670Z,5.83
2023-03-03T22:29:23.129Z,6.52
2023-03-03T22:31:53.228Z,6.23
2023-03-03T22:34:21.742Z,6.05
2023-03-03T22:36:50.117Z,5.94
2023-03-03T22:39:18.581Z,5.87
2023-03-03T22:41:47.100Z,5.79
2023-03-03T22:44:15.589Z,5.77
2023-03-03T22:46:43.968Z,5.75
2023-03-03T22:49:13.841Z,5.73
2023-03-03T22:51:42.303Z,5.72
2023-03-03T22:54:10.675Z,5.70
2023-03-03T22:56:39.123Z,5.71
2023-03-03T22:59:07.560Z,5.78
2023-03-03T23:01:37.975Z,5.77
2023-03-03T23:04:07.164Z,5.75
2023-03-03T23:06:36.987Z,5.69
2023-03-03T23:09:05.608Z,5.59
2023-03-03T23:11:34.082Z,5.50
2023-03-03T23:14:02.665Z,5.45
2023-03-03T23:16:31.101Z,5.39
2023-03-03T23:18:59.710Z,5.38
2023-03-03T23:21:28.182Z,5.38
2023-03-03T23:23:58.170Z,5.35
2023-03-03T23:26:26.779Z,5.26
2023-03-03T23:28:55.229Z,5.16
2023-03-03T23:31:25.628Z,5.06
2023-03-03T23:33:54.167Z,4.99
2023-03-03T23:36:22.570Z,4.96
2023-03-03T23:38:50.948Z,4.96
2023-03-03T23:41:20.797Z,4.87
2023-03-03T23:43:49.227Z,4.87
2023-03-03T23:46:17.776Z,4.81
2023-03-03T23:48:46.337Z,4.76
2023-03-03T23:51:14.794Z,4.80
2023-03-03T23:53:43.241Z,4.78
2023-03-03T23:56:11.617Z,4.74
2023-03-03T23:58:41.452Z,4.73
